Time;durP1;ratioP1;P1;durP2;ratioP2;P2;SDS_P1;SDS_P2;PMS_P1;PMS_P2;Temp;Humidity;BMP_temperature;BMP_pressure;BME280_temperature;BME280_humidity;BME280_pressure;Samples;Min_cycle;Max_cycle;Signal;HPM_P1;HPM_P2
2020/12/03 00:00:53;;;;;;;39.13;22.17;;;2.10;99.90;;;;;;4998717;28;20025;-72
2020/12/03 00:03:32;;;;;;;39.15;21.88;;;2.10;99.90;;;;;;5014806;28;20401;-73
2020/12/03 00:06:01;;;;;;;38.92;22.85;;;1.90;99.90;;;;;;5004536;28;20435;-73
2020/12/03 00:08:31;;;;;;;43.30;22.75;;;1.70;99.90;;;;;;4996553;28;20057;-73
2020/12/03 00:11:00;;;;;;;36.55;20.98;;;1.90;99.90;;;;;;5004619;28;20022;-73
2020/12/03 00:13:27;;;;;;;39.58;22.48;;;2.00;99.90;;;;;;5007205;28;20171;-73
2020/12/03 00:15:56;;;;;;;42.47;22.40;;;2.00;99.90;;;;;;5000612;28;20054;-72
2020/12/03 00:18:26;;;;;;;44.53;24.60;;;1.70;99.90;;;;;;5015045;28;20049;-72
2020/12/03 00:20:53;;;;;;;40.40;22.53;;;1.50;99.90;;;;;;5004039;28;20414;-72
2020/12/03 00:23:20;;;;;;;41.97;23.10;;;1.40;99.90;;;;;;5012605;28;20292;-72
2020/12/03 00:25:47;;;;;;;41.85;23.70;;;1.40;99.90;;;;;;4997238;28;20080;-72
2020/12/03 00:28:12;;;;;;;44.72;22.27;;;1.50;99.90;;;;;;5001423;28;20459;-72
2020/12/03 00:30:38;;;;;;;43.63;21.65;;;1.80;99.90;;;;;;5005032;28;20113;-72
2020/12/03 00:33:04;;;;;;;42.08;24.42;;;1.80;99.90;;;;;;5010287;28;20441;-72
2020/12/03 00:35:29;;;;;;;38.53;21.33;;;1.80;99.90;;;;;;5000960;28;20030;-71
2020/12/03 00:37:55;;;;;;;36.05;21.42;;;1.80;99.90;;;;;;4997624;28;20378;-72
2020/12/03 00:40:21;;;;;;;40.83;24.15;;;1.80;99.90;;;;;;5003257;28;20049;-72
2020/12/03 00:42:47;;;;;;;40.35;23.27;;;1.70;99.90;;;;;;4995466;28;20026;-72
2020/12/03 00:45:15;;;;;;;44.67;24.13;;;1.70;99.90;;;;;;4995543;28;20096;-72
2020/12/03 00:47:41;;;;;;;45.83;23.17;;;1.80;99.90;;;;;;4980572;28;20066;-72
2020/12/03 00:50:11;;;;;;;40.60;22.08;;;1.80;99.90;;;;;;4975712;28;20026;-72
2020/12/03 00:52:37;;;;;;;39.47;22.65;;;1.80;99.90;;;;;;4998661;28;20437;-71
2020/12/03 00:55:03;;;;;;;44.10;24.35;;;1.80;99.90;;;;;;4993851;28;20034;-72
2020/12/03 00:57:29;;;;;;;40.30;23.33;;;1.80;99.90;;;;;;5005381;28;20148;-73
2020/12/03 00:59:54;;;;;;;40.13;21.13;;;2.00;99.90;;;;;;5013468;28;20053;-72
2020/12/03 01:02:20;;;;;;;38.22;21.88;;;2.10;99.90;;;;;;5029154;28;20026;-71
2020/12/03 01:04:45;;;;;;;38.38;21.70;;;2.00;99.90;;;;;;5033430;28;20164;-70
2020/12/03 01:07:11;;;;;;;45.58;22.92;;;1.80;99.90;;;;;;5031482;28;20082;-71
2020/12/03 01:09:38;;;;;;;44.17;23.05;;;1.80;99.90;;;;;;5030031;28;20037;-71
2020/12/03 01:12:07;;;;;;;39.35;22.50;;;1.70;99.90;;;;;;5023456;28;20026;-72
2020/12/03 01:14:34;;;;;;;41.10;23.52;;;1.70;99.90;;;;;;5007777;28;20477;-72
2020/12/03 01:17:05;;;;;;;39.78;23.63;;;1.70;99.90;;;;;;5010365;28;20025;-71
2020/12/03 01:19:31;;;;;;;42.45;23.10;;;1.90;99.90;;;;;;4995288;28;20327;-71
2020/12/03 01:21:56;;;;;;;42.45;24.98;;;1.90;99.90;;;;;;4996071;28;20118;-71
2020/12/03 01:24:22;;;;;;;42.65;23.58;;;2.00;99.90;;;;;;4995046;28;20026;-72
2020/12/03 01:26:47;;;;;;;41.25;25.10;;;2.00;99.90;;;;;;4995042;28;20062;-71
2020/12/03 01:29:14;;;;;;;43.75;22.77;;;1.90;99.90;;;;;;5003116;28;20057;-73
2020/12/03 01:31:39;;;;;;;40.33;23.77;;;1.80;99.90;;;;;;5010541;28;20456;-72
2020/12/03 01:34:05;;;;;;;45.72;24.27;;;1.90;99.90;;;;;;5016366;28;20018;-72
2020/12/03 01:36:30;;;;;;;41.53;23.02;;;1.80;99.90;;;;;;5012893;28;20022;-72
2020/12/03 01:38:56;;;;;;;44.63;23.52;;;1.90;99.90;;;;;;4995533;28;20018;-72
2020/12/03 01:41:21;;;;;;;42.00;23.30;;;1.90;99.90;;;;;;4996747;28;20431;-72
2020/12/03 01:43:47;;;;;;;40.50;23.02;;;1.90;99.90;;;;;;5004527;28;20493;-72
2020/12/03 01:46:13;;;;;;;42.72;23.40;;;1.80;99.90;;;;;;4999635;28;20034;-72
2020/12/03 01:48:52;;;;;;;44.03;23.10;;;1.70;99.90;;;;;;5015524;28;20327;-71
2020/12/03 01:51:33;;;;;;;41.03;22.30;;;1.80;99.90;;;;;;5009819;28;20022;-72
2020/12/03 01:54:03;;;;;;;42.22;24.05;;;1.80;99.90;;;;;;5012273;28;20486;-72
2020/12/03 01:56:46;;;;;;;43.08;23.23;;;1.70;99.90;;;;;;5034048;28;20018;-71
2020/12/03 01:59:13;;;;;;;39.10;23.48;;;1.80;99.90;;;;;;5016322;28;20019;-71
2020/12/03 02:01:40;;;;;;;43.28;23.50;;;1.70;99.90;;;;;;5010121;28;20034;-73
2020/12/03 02:04:05;;;;;;;40.75;23.65;;;1.60;99.90;;;;;;5002133;28;20498;-71
2020/12/03 02:06:34;;;;;;;43.00;24.08;;;1.50;99.90;;;;;;4996499;28;20033;-71
2020/12/03 02:09:00;;;;;;;40.17;23.00;;;1.50;99.90;;;;;;5001881;28;20049;-71
2020/12/03 02:11:26;;;;;;;43.13;24.80;;;1.40;99.90;;;;;;5016388;28;20070;-71
2020/12/03 02:13:56;;;;;;;41.28;21.95;;;1.40;99.90;;;;;;4999762;28;20427;-72
2020/12/03 02:16:24;;;;;;;43.10;23.77;;;1.40;99.90;;;;;;4994482;28;20034;-72
2020/12/03 02:18:51;;;;;;;44.60;22.73;;;1.40;99.90;;;;;;5005487;28;20501;-72
2020/12/03 02:21:17;;;;;;;41.50;24.27;;;1.40;99.90;;;;;;4995280;28;20135;-72
2020/12/03 02:23:43;;;;;;;44.95;23.20;;;1.40;99.90;;;;;;4997937;28;20034;-72
2020/12/03 02:26:09;;;;;;;43.30;24.30;;;1.40;99.90;;;;;;4992335;28;20558;-72
2020/12/03 02:28:35;;;;;;;45.67;23.77;;;1.50;99.90;;;;;;5006617;28;20113;-73
2020/12/03 02:31:01;;;;;;;49.03;22.63;;;1.60;99.90;;;;;;5000142;28;20030;-71
2020/12/03 02:33:27;;;;;;;40.85;23.88;;;1.50;99.90;;;;;;5007234;28;20032;-73
2020/12/03 02:35:52;;;;;;;50.92;23.85;;;1.70;99.90;;;;;;4996361;28;20509;-72
2020/12/03 02:38:18;;;;;;;45.58;24.60;;;1.80;99.90;;;;;;5002339;28;20421;-72
2020/12/03 02:40:44;;;;;;;46.97;22.63;;;1.90;99.90;;;;;;5014549;28;20033;-72
2020/12/03 02:43:09;;;;;;;44.03;23.48;;;2.00;99.90;;;;;;5007886;28;20038;-72
2020/12/03 02:45:35;;;;;;;44.97;24.75;;;1.90;99.90;;;;;;5017661;28;20458;-72
2020/12/03 02:48:00;;;;;;;40.95;23.10;;;1.80;99.90;;;;;;5001100;28;20057;-73
2020/12/03 02:50:26;;;;;;;46.70;23.92;;;1.70;99.90;;;;;;5011500;28;20022;-72
2020/12/03 02:52:52;;;;;;;42.25;24.40;;;1.60;99.90;;;;;;5011091;28;20135;-72
2020/12/03 02:55:17;;;;;;;45.88;24.42;;;1.60;99.90;;;;;;5006729;28;20030;-72
2020/12/03 02:57:43;;;;;;;46.88;24.20;;;1.60;99.90;;;;;;5005753;28;20030;-71
2020/12/03 03:00:08;;;;;;;47.03;25.33;;;1.60;99.90;;;;;;5011009;28;20026;-71
2020/12/03 03:02:34;;;;;;;40.38;22.90;;;1.50;99.90;;;;;;5000815;28;20065;-72
2020/12/03 03:04:59;;;;;;;43.33;24.00;;;1.60;99.90;;;;;;5009180;28;20509;-71
2020/12/03 03:07:25;;;;;;;43.30;24.35;;;1.60;99.90;;;;;;5003262;28;20485;-71
2020/12/03 03:09:50;;;;;;;44.83;25.05;;;1.60;99.90;;;;;;5009302;28;20025;-72
2020/12/03 03:12:16;;;;;;;46.90;25.52;;;1.60;99.90;;;;;;5009073;28;20453;-72
2020/12/03 03:14:42;;;;;;;50.72;26.30;;;1.60;99.90;;;;;;5008919;28;20512;-72
2020/12/03 03:17:07;;;;;;;44.30;25.15;;;1.50;99.90;;;;;;4999573;28;20559;-72
2020/12/03 03:19:33;;;;;;;44.83;24.08;;;1.50;99.90;;;;;;5011559;28;20066;-72
2020/12/03 03:21:59;;;;;;;45.92;24.23;;;1.60;99.90;;;;;;5011187;28;20042;-71
2020/12/03 03:24:24;;;;;;;44.97;24.38;;;1.60;99.90;;;;;;5012011;28;20548;-71
2020/12/03 03:26:50;;;;;;;45.17;25.20;;;1.70;99.90;;;;;;4993634;28;20035;-72
2020/12/03 03:29:15;;;;;;;40.70;24.42;;;1.70;99.90;;;;;;4972168;28;20400;-72
2020/12/03 03:31:42;;;;;;;45.58;24.58;;;1.70;99.90;;;;;;5006094;28;20105;-72
2020/12/03 03:34:08;;;;;;;40.22;23.55;;;1.70;99.90;;;;;;5005704;28;20486;-73
2020/12/03 03:36:34;;;;;;;45.70;26.58;;;1.60;99.90;;;;;;4992460;28;20505;-72
2020/12/03 03:39:01;;;;;;;42.53;25.27;;;1.70;99.90;;;;;;4996935;28;20034;-73
2020/12/03 03:41:26;;;;;;;42.88;23.95;;;1.70;99.90;;;;;;5012658;28;20037;-72
2020/12/03 03:43:52;;;;;;;46.33;27.25;;;1.70;99.90;;;;;;5010496;28;20414;-72
2020/12/03 03:46:18;;;;;;;44.22;25.35;;;1.70;99.90;;;;;;5002997;28;20038;-71
2020/12/03 03:48:44;;;;;;;42.95;25.05;;;1.70;99.90;;;;;;4998273;28;20027;-72
2020/12/03 03:51:10;;;;;;;43.53;23.85;;;1.60;99.90;;;;;;5005838;28;20045;-72
2020/12/03 03:53:35;;;;;;;46.70;26.67;;;1.50;99.90;;;;;;5006868;28;20032;-72
2020/12/03 03:56:01;;;;;;;46.42;26.17;;;1.50;99.90;;;;;;4992499;28;20018;-72
2020/12/03 03:58:27;;;;;;;47.65;24.48;;;1.50;99.90;;;;;;4996374;28;20069;-72
2020/12/03 04:00:53;;;;;;;44.67;25.38;;;1.50;99.90;;;;;;4996100;28;20031;-72
2020/12/03 04:03:21;;;;;;;43.40;25.98;;;1.50;99.90;;;;;;4983063;28;20335;-73
2020/12/03 04:05:51;;;;;;;42.05;23.92;;;1.50;99.90;;;;;;4991000;28;20061;-72
2020/12/03 04:08:17;;;;;;;48.97;26.17;;;1.50;99.90;;;;;;4975443;28;20077;-72
2020/12/03 04:10:44;;;;;;;45.85;24.45;;;1.60;99.90;;;;;;4978060;28;20448;-72
2020/12/03 04:13:10;;;;;;;41.30;24.42;;;1.60;99.90;;;;;;4994121;28;20023;-72
2020/12/03 04:15:36;;;;;;;43.85;24.05;;;1.60;99.90;;;;;;5009515;28;20088;-72
2020/12/03 04:18:03;;;;;;;44.22;24.23;;;1.60;99.90;;;;;;4997090;28;20034;-72
2020/12/03 04:20:29;;;;;;;42.80;25.33;;;1.60;99.90;;;;;;5013003;28;20029;-72
2020/12/03 04:22:54;;;;;;;46.97;26.00;;;1.60;99.90;;;;;;5016263;28;20365;-71
2020/12/03 04:25:20;;;;;;;44.13;25.85;;;1.60;99.90;;;;;;5004082;28;20038;-72
2020/12/03 04:27:46;;;;;;;37.67;24.20;;;1.70;99.90;;;;;;5015900;28;20068;-71
2020/12/03 04:30:12;;;;;;;43.08;25.27;;;1.70;99.90;;;;;;5003354;28;20022;-72
2020/12/03 04:32:37;;;;;;;49.08;27.10;;;1.70;99.90;;;;;;5010891;28;20054;-72
2020/12/03 04:35:08;;;;;;;43.00;24.92;;;1.90;99.90;;;;;;5009766;28;20037;-72
2020/12/03 04:37:34;;;;;;;48.08;27.02;;;1.90;99.90;;;;;;5008746;28;20018;-72
2020/12/03 04:39:59;;;;;;;45.40;24.80;;;1.90;99.90;;;;;;5014235;28;20131;-72
2020/12/03 04:42:32;;;;;;;41.05;26.23;;;1.90;99.90;;;;;;5014973;28;20026;-72
2020/12/03 04:45:20;;;;;;;48.70;27.23;;;1.90;99.90;;;;;;4995856;28;20033;-71
2020/12/03 04:48:28;;;;;;;48.35;26.23;;;1.80;99.90;;;;;;5011909;28;20038;-73
2020/12/03 04:50:59;;;;;;;42.58;23.33;;;1.80;99.90;;;;;;4974366;28;20022;-73
2020/12/03 04:53:37;;;;;;;;;;;1.80;99.90;;;;;;4977927;28;20050;-72
2020/12/03 04:56:21;;;;;;;36.17;22.83;;;1.80;99.90;;;;;;5005727;28;19909;-73
2020/12/03 04:59:11;;;;;;;34.67;21.17;;;2.00;99.90;;;;;;5008042;28;20429;-72
2020/12/03 05:01:57;;;;;;;39.90;24.63;;;1.90;99.90;;;;;;5002168;28;20050;-72
2020/12/03 05:05:08;;;;;;;43.97;22.30;;;1.90;99.90;;;;;;5001446;28;20032;-71
2020/12/03 05:07:34;;;;;;;35.78;22.83;;;1.90;99.90;;;;;;4988381;28;20104;-72
2020/12/03 05:10:24;;;;;;;40.35;21.90;;;1.90;99.90;;;;;;4996760;28;20042;-73
2020/12/03 05:12:49;;;;;;;39.50;21.90;;;1.90;99.90;;;;;;4999306;28;20378;-72
2020/12/03 05:15:28;;;;;;;36.92;21.50;;;1.90;99.90;;;;;;5007632;28;20101;-72
2020/12/03 05:18:21;;;;;;;37.72;22.75;;;2.00;99.90;;;;;;5016511;28;20194;-72
2020/12/03 05:20:52;;;;;;;37.72;22.88;;;2.10;99.90;;;;;;4996258;28;20696;-73
2020/12/03 05:23:22;;;;;;;39.30;24.33;;;2.10;99.90;;;;;;4998474;28;20030;-72
2020/12/03 05:25:50;;;;;;;36.25;20.92;;;2.10;99.90;;;;;;5012770;28;20037;-72
2020/12/03 05:28:21;;;;;;;32.90;19.70;;;2.10;99.90;;;;;;4992048;28;20026;-72
2020/12/03 05:30:53;;;;;;;28.98;19.83;;;2.10;99.90;;;;;;5002051;28;20382;-71
2020/12/03 05:33:19;;;;;;;30.48;18.95;;;2.20;99.90;;;;;;5026848;28;20022;-72
2020/12/03 05:35:45;;;;;;;35.42;20.83;;;2.20;99.90;;;;;;5028916;28;20026;-72
2020/12/03 05:38:24;;;;;;;30.25;18.30;;;2.20;99.90;;;;;;5021064;28;20124;-72
2020/12/03 05:41:01;;;;;;;32.70;19.30;;;2.30;99.90;;;;;;5031581;28;20034;-72
2020/12/03 05:43:28;;;;;;;32.97;18.90;;;2.30;99.90;;;;;;5013696;28;20037;-71
2020/12/03 05:45:58;;;;;;;29.92;19.25;;;2.30;99.90;;;;;;5021399;28;20030;-72
2020/12/03 05:48:24;;;;;;;26.27;18.08;;;2.30;99.90;;;;;;5019151;28;20025;-71
2020/12/03 05:50:52;;;;;;;26.13;17.25;;;2.30;99.90;;;;;;5017137;28;20049;-73
2020/12/03 05:53:18;;;;;;;25.83;15.98;;;2.30;99.90;;;;;;5002084;28;20110;-72
2020/12/03 05:55:45;;;;;;;26.40;15.93;;;2.40;99.90;;;;;;5005647;28;20069;-73
2020/12/03 05:58:13;;;;;;;25.98;16.73;;;2.40;99.90;;;;;;5011147;28;20042;-72
2020/12/03 06:00:39;;;;;;;26.80;17.83;;;2.50;99.90;;;;;;5008031;28;20030;-72
2020/12/03 06:03:07;;;;;;;26.30;17.67;;;2.50;99.90;;;;;;5009503;28;20030;-71
2020/12/03 06:05:59;;;;;;;23.50;15.13;;;2.50;99.90;;;;;;5019327;28;20025;-71
2020/12/03 06:08:56;;;;;;;25.48;15.90;;;2.50;99.90;;;;;;5012303;28;20025;-72
2020/12/03 06:11:34;;;;;;;24.17;15.75;;;2.50;99.90;;;;;;5019398;28;20029;-72
2020/12/03 06:14:22;;;;;;;24.42;15.57;;;2.50;99.90;;;;;;5021785;28;20029;-72
2020/12/03 06:17:16;;;;;;;21.02;14.77;;;2.50;99.90;;;;;;5002723;28;20072;-72
2020/12/03 06:20:03;;;;;;;22.42;15.00;;;2.60;99.90;;;;;;4976333;28;20054;-73
2020/12/03 06:22:56;;;;;;;24.67;15.35;;;2.60;99.90;;;;;;4988922;28;20061;-72
2020/12/03 06:25:52;;;;;;;20.85;14.38;;;2.70;99.90;;;;;;5008583;28;20026;-73
2020/12/03 06:28:36;;;;;;;20.42;13.55;;;2.90;99.90;;;;;;4993367;28;20510;-72
2020/12/03 06:31:24;;;;;;;20.75;13.40;;;2.90;99.90;;;;;;4997027;28;20121;-72
2020/12/03 06:34:03;;;;;;;19.00;12.18;;;3.00;99.90;;;;;;4998144;28;20501;-72
2020/12/03 06:36:41;;;;;;;14.60;11.27;;;3.00;99.90;;;;;;4994826;28;20523;-72
2020/12/03 06:39:31;;;;;;;16.38;12.20;;;2.90;99.90;;;;;;5012867;28;20049;-72
2020/12/03 06:42:06;;;;;;;13.10;10.48;;;2.90;99.90;;;;;;5006259;28;20100;-73
2020/12/03 06:45:11;;;;;;;15.10;11.05;;;2.90;99.90;;;;;;4997619;28;20026;-72
2020/12/03 06:48:05;;;;;;;15.90;11.65;;;2.90;99.90;;;;;;4999330;28;20032;-72
2020/12/03 06:51:08;;;;;;;18.38;10.65;;;2.90;99.90;;;;;;4995417;28;20029;-73
2020/12/03 06:53:37;;;;;;;12.77;10.40;;;2.80;99.90;;;;;;4991719;28;20019;-72
2020/12/03 06:56:30;;;;;;;17.00;10.80;;;2.90;99.90;;;;;;5004717;28;20034;-72
2020/12/03 06:59:20;;;;;;;13.70;10.27;;;3.00;99.90;;;;;;5007525;28;20034;-72
2020/12/03 07:02:06;;;;;;;14.05;10.95;;;2.90;99.90;;;;;;4996740;28;20033;-72
2020/12/03 07:04:54;;;;;;;21.52;11.88;;;2.90;99.90;;;;;;5007070;28;20569;-72
2020/12/03 07:07:51;;;;;;;16.33;11.48;;;2.90;99.90;;;;;;4997489;28;20041;-73
2020/12/03 07:10:51;;;;;;;16.02;11.27;;;2.90;99.90;;;;;;4983034;28;20031;-72
2020/12/03 07:13:31;;;;;;;14.20;10.68;;;2.90;99.90;;;;;;5009348;28;20014;-73
2020/12/03 07:16:15;;;;;;;15.43;11.95;;;2.90;99.90;;;;;;4976601;28;20022;-72
2020/12/03 07:18:44;;;;;;;19.55;12.35;;;2.90;99.90;;;;;;4990785;28;20526;-73
2020/12/03 07:21:25;;;;;;;15.00;11.95;;;2.90;99.90;;;;;;4992557;28;20125;-72
2020/12/03 07:23:54;;;;;;;;;;;3.00;99.90;;;;;;4999741;28;20069;-72
2020/12/03 07:26:28;;;;;;;14.63;11.30;;;3.00;99.90;;;;;;4992943;28;20001;-72
2020/12/03 07:28:55;;;;;;;14.65;10.52;;;3.00;99.90;;;;;;4991665;28;20110;-73
2020/12/03 07:31:37;;;;;;;16.70;11.50;;;3.00;99.90;;;;;;5004952;28;20030;-73
2020/12/03 07:34:32;;;;;;;18.52;11.00;;;3.00;99.90;;;;;;5008127;28;20081;-72
2020/12/03 07:37:33;;;;;;;12.85;9.68;;;3.00;99.90;;;;;;4976797;28;20433;-71
2020/12/03 07:39:59;;;;;;;13.85;10.95;;;3.20;99.90;;;;;;5013783;28;20557;-72
2020/12/03 07:42:24;;;;;;;14.20;11.75;;;3.10;99.90;;;;;;5016831;28;20061;-72
2020/12/03 07:44:53;;;;;;;17.63;10.63;;;3.10;99.90;;;;;;4998213;28;20375;-72
2020/12/03 07:47:19;;;;;;;14.05;11.02;;;3.10;99.90;;;;;;5006468;28;20102;-72
2020/12/03 07:49:46;;;;;;;15.65;11.80;;;3.20;99.90;;;;;;5004973;28;20058;-72
2020/12/03 07:52:37;;;;;;;14.85;10.98;;;3.20;99.90;;;;;;4994650;28;20030;-72
2020/12/03 07:55:21;;;;;;;14.32;10.55;;;3.30;99.90;;;;;;5010964;28;20034;-73
2020/12/03 07:57:48;;;;;;;12.77;10.68;;;3.40;99.90;;;;;;4997977;28;20365;-72
2020/12/03 08:00:46;;;;;;;15.48;9.95;;;3.30;99.90;;;;;;4998858;28;20093;-72
2020/12/03 08:03:32;;;;;;;12.98;10.57;;;3.30;99.90;;;;;;5001699;28;20482;-73
2020/12/03 08:06:05;;;;;;;15.57;10.48;;;3.30;99.90;;;;;;5003317;28;20073;-72
2020/12/03 08:08:33;;;;;;;14.30;9.60;;;3.40;99.90;;;;;;4999314;28;20125;-72
2020/12/03 08:10:59;;;;;;;10.85;8.65;;;3.40;99.90;;;;;;4997457;28;20045;-72
2020/12/03 08:13:53;;;;;;;12.23;9.48;;;3.40;99.90;;;;;;5001346;28;20457;-72
2020/12/03 08:16:42;;;;;;;13.70;8.68;;;3.40;99.90;;;;;;4995789;28;20046;-73
2020/12/03 08:19:27;;;;;;;15.15;9.85;;;3.40;99.90;;;;;;4976321;28;20406;-73
2020/12/03 08:21:53;;;;;;;11.00;8.40;;;3.50;99.90;;;;;;5005277;28;20489;-72
2020/12/03 08:24:23;;;;;;;11.10;6.47;;;3.50;99.90;;;;;;5000982;28;20041;-72
2020/12/03 08:26:54;;;;;;;8.23;6.88;;;3.50;99.90;;;;;;5014330;28;20030;-73
2020/12/03 08:29:44;;;;;;;9.25;5.40;;;3.60;99.90;;;;;;5000305;28;20054;-72
2020/12/03 08:32:09;;;;;;;6.28;5.45;;;3.70;99.90;;;;;;5006587;28;20022;-73
2020/12/03 08:34:37;;;;;;;6.38;5.28;;;3.70;99.90;;;;;;5015081;28;20029;-73
2020/12/03 08:37:03;;;;;;;6.22;4.30;;;3.80;99.90;;;;;;5008237;28;20026;-73
2020/12/03 08:39:30;;;;;;;7.88;5.75;;;3.80;99.90;;;;;;5002822;28;20090;-73
2020/12/03 08:41:56;;;;;;;9.13;6.95;;;3.90;99.90;;;;;;5015128;28;20026;-74
2020/12/03 08:44:23;;;;;;;21.13;6.95;;;3.90;99.90;;;;;;5013642;28;20080;-73
2020/12/03 08:46:54;;;;;;;12.60;5.53;;;3.90;99.90;;;;;;4996776;28;20113;-71
2020/12/03 08:49:23;;;;;;;10.48;7.78;;;3.90;99.90;;;;;;4995426;28;20504;-73
2020/12/03 08:51:56;;;;;;;8.73;5.93;;;3.90;99.90;;;;;;4995837;28;20030;-73
2020/12/03 08:54:32;;;;;;;9.30;6.95;;;4.00;99.90;;;;;;4995528;28;20067;-74
2020/12/03 08:57:02;;;;;;;10.38;6.28;;;4.00;99.90;;;;;;5007539;28;20029;-74
2020/12/03 08:59:34;;;;;;;10.35;6.85;;;4.10;99.90;;;;;;5001434;28;20026;-73
2020/12/03 09:02:08;;;;;;;8.07;6.95;;;4.10;99.90;;;;;;5011069;28;20060;-73
2020/12/03 09:04:37;;;;;;;9.30;7.38;;;4.20;99.90;;;;;;4994671;28;20102;-73
2020/12/03 09:07:09;;;;;;;13.40;8.55;;;4.30;99.90;;;;;;4994134;28;20034;-73
2020/12/03 09:09:37;;;;;;;12.63;8.32;;;4.40;99.90;;;;;;5004429;28;20074;-72
2020/12/03 09:12:06;;;;;;;13.10;8.10;;;4.30;99.90;;;;;;5009272;28;20026;-72
2020/12/03 09:14:36;;;;;;;14.48;8.48;;;4.30;99.90;;;;;;5014260;28;20107;-72
2020/12/03 09:17:08;;;;;;;15.77;9.35;;;4.30;99.90;;;;;;5014625;28;20022;-72
2020/12/03 09:19:33;;;;;;;14.93;8.60;;;4.20;99.90;;;;;;5013032;28;20045;-72
2020/12/03 09:22:01;;;;;;;12.82;9.40;;;4.20;99.90;;;;;;5014422;28;20037;-72
2020/12/03 09:24:27;;;;;;;12.75;9.60;;;4.00;99.90;;;;;;5014840;28;20404;-72
2020/12/03 09:26:55;;;;;;;14.57;10.95;;;3.90;99.90;;;;;;4996423;28;20494;-72
2020/12/03 09:29:21;;;;;;;15.57;11.10;;;3.90;99.90;;;;;;4999705;28;20063;-73
2020/12/03 09:31:52;;;;;;;12.25;9.80;;;3.80;99.90;;;;;;5014659;28;20397;-72
2020/12/03 09:34:18;;;;;;;15.15;9.65;;;3.90;99.90;;;;;;5014093;28;20013;-72
2020/12/03 09:36:44;;;;;;;16.60;9.93;;;4.00;99.90;;;;;;5008573;28;20102;-73
2020/12/03 09:39:10;;;;;;;11.82;8.85;;;4.10;99.90;;;;;;5005137;28;20064;-72
2020/12/03 09:41:36;;;;;;;19.27;10.98;;;4.20;99.90;;;;;;5004782;28;20450;-71
2020/12/03 09:44:07;;;;;;;15.90;9.73;;;4.20;99.90;;;;;;4994419;28;20022;-72
2020/12/03 09:46:37;;;;;;;18.70;9.48;;;4.20;99.90;;;;;;5002629;28;20068;-72
2020/12/03 09:49:03;;;;;;;13.27;8.80;;;4.30;99.90;;;;;;5006529;28;20066;-72
2020/12/03 09:51:29;;;;;;;13.00;9.60;;;4.50;99.90;;;;;;5004913;28;20444;-72
2020/12/03 09:53:55;;;;;;;10.23;8.93;;;4.40;99.90;;;;;;5008201;28;20085;-72
2020/12/03 09:56:21;;;;;;;15.32;9.35;;;4.50;99.90;;;;;;5007007;28;20109;-72
2020/12/03 09:58:57;;;;;;;13.35;9.88;;;4.60;99.90;;;;;;5011180;28;20096;-71
2020/12/03 10:01:38;;;;;;;10.82;9.52;;;4.50;99.90;;;;;;4996330;28;20034;-73
2020/12/03 10:04:30;;;;;;;16.27;10.38;;;4.50;99.90;;;;;;5001779;28;20515;-72
2020/12/03 10:07:06;;;;;;;10.40;9.05;;;4.50;99.90;;;;;;5005466;28;20064;-72
2020/12/03 10:10:11;;;;;;;13.45;9.10;;;4.50;99.90;;;;;;5012555;28;20101;-71
2020/12/03 10:13:03;;;;;;;11.50;8.63;;;4.50;99.90;;;;;;5012221;28;20037;-72
2020/12/03 10:15:49;;;;;;;14.35;9.68;;;4.40;99.90;;;;;;5027587;28;20022;-72
2020/12/03 10:18:24;;;;;;;10.40;8.88;;;4.70;99.90;;;;;;5012783;28;20030;-73
2020/12/03 10:20:51;;;;;;;13.80;9.52;;;4.70;99.90;;;;;;5005734;28;20049;-72
2020/12/03 10:23:46;;;;;;;13.10;9.25;;;4.60;99.90;;;;;;5024207;28;20030;-73
2020/12/03 10:26:11;;;;;;;12.95;9.10;;;4.60;99.90;;;;;;4971085;28;20040;-73
2020/12/03 10:28:52;;;;;;;15.45;9.05;;;4.60;99.90;;;;;;5000198;28;20034;-74
2020/12/03 10:31:20;;;;;;;8.85;7.68;;;4.90;99.90;;;;;;5009993;28;20041;-72
2020/12/03 10:33:51;;;;;;;11.52;8.65;;;4.70;99.90;;;;;;5032822;28;20022;-72
2020/12/03 10:36:36;;;;;;;11.23;8.65;;;4.70;99.90;;;;;;5014253;28;20065;-72
2020/12/03 10:39:03;;;;;;;11.18;9.10;;;4.80;99.90;;;;;;5011252;28;20538;-71
2020/12/03 10:41:34;;;;;;;11.50;9.00;;;4.80;99.90;;;;;;4997302;28;20109;-72
2020/12/03 10:44:02;;;;;;;15.98;8.65;;;4.70;99.90;;;;;;5001177;28;20481;-73
2020/12/03 10:46:32;;;;;;;11.75;7.68;;;4.70;99.90;;;;;;5012399;28;20037;-72
2020/12/03 10:48:59;;;;;;;10.80;8.88;;;4.90;99.90;;;;;;5011871;28;20030;-73
2020/12/03 10:51:25;;;;;;;11.00;8.40;;;4.80;99.90;;;;;;4997147;28;20421;-73
2020/12/03 10:53:52;;;;;;;10.82;7.75;;;5.00;99.90;;;;;;5009141;28;20025;-72
2020/12/03 10:56:26;;;;;;;13.63;9.40;;;4.90;99.90;;;;;;5014955;28;20037;-73
2020/12/03 10:59:21;;;;;;;14.65;9.00;;;4.90;99.90;;;;;;5004175;28;20394;-72
2020/12/03 11:01:54;;;;;;;9.82;8.00;;;4.90;99.90;;;;;;4990324;28;20042;-72
2020/12/03 11:04:20;;;;;;;8.75;7.15;;;5.00;99.90;;;;;;5015298;28;20457;-72
2020/12/03 11:06:46;;;;;;;12.43;7.53;;;5.00;99.90;;;;;;5007584;28;20061;-73
2020/12/03 11:09:20;;;;;;;10.00;7.05;;;5.00;99.90;;;;;;5001305;28;20459;-73
2020/12/03 11:11:50;;;;;;;9.35;7.47;;;5.00;99.90;;;;;;5016845;28;20469;-72
2020/12/03 11:14:16;;;;;;;14.38;8.18;;;5.00;99.90;;;;;;5014661;28;20037;-73
2020/12/03 11:16:56;;;;;;;10.80;7.25;;;4.90;99.90;;;;;;4997130;28;20019;-73
2020/12/03 11:19:24;;;;;;;12.05;7.13;;;4.80;99.90;;;;;;5001948;28;20033;-73
2020/12/03 11:22:19;;;;;;;9.13;6.97;;;4.80;99.90;;;;;;5008969;28;20027;-73
2020/12/03 11:24:49;;;;;;;8.80;7.45;;;4.80;99.90;;;;;;5000597;28;20065;-73
2020/12/03 11:27:18;;;;;;;9.55;7.68;;;4.80;99.90;;;;;;4999961;28;20033;-73
2020/12/03 11:29:44;;;;;;;10.98;7.40;;;4.70;99.90;;;;;;5004541;28;20124;-73
2020/12/03 11:32:09;;;;;;;9.70;7.30;;;4.70;99.90;;;;;;5009562;28;20501;-73
2020/12/03 11:34:38;;;;;;;13.45;7.20;;;4.70;99.90;;;;;;5016883;28;20025;-73
2020/12/03 11:37:07;;;;;;;9.57;7.90;;;4.70;99.90;;;;;;5008413;28;20089;-73
2020/12/03 11:39:33;;;;;;;8.32;6.47;;;4.70;99.90;;;;;;5007621;28;20036;-73
2020/12/03 11:45:29;;;;;;;8.10;6.57;;;4.60;99.90;;;;;;5015928;28;20617;-73
2020/12/03 11:50:24;;;;;;;11.90;7.30;;;4.60;99.90;;;;;;5017160;28;20168;-72
2020/12/03 11:52:49;;;;;;;13.13;7.82;;;4.70;99.90;;;;;;5005243;28;20088;-73
2020/12/03 11:55:23;;;;;;;9.60;6.82;;;4.70;99.90;;;;;;5011119;28;20021;-71
2020/12/03 11:57:50;;;;;;;7.72;6.90;;;4.70;99.90;;;;;;5010215;28;20557;-73
2020/12/03 12:00:20;;;;;;;7.53;6.30;;;4.70;99.90;;;;;;5016189;28;20413;-72
2020/12/03 12:02:49;;;;;;;7.00;6.03;;;4.60;99.90;;;;;;5016380;28;20378;-72
2020/12/03 12:05:37;;;;;;;8.93;6.57;;;4.50;99.90;;;;;;5012426;28;20518;-72
2020/12/03 12:10:59;;;;;;;9.10;6.70;;;4.60;99.90;;;;;;5013506;28;20052;-73
2020/12/03 12:13:24;;;;;;;11.05;6.78;;;4.60;99.90;;;;;;5006171;28;20026;-73
2020/12/03 12:15:50;;;;;;;11.77;6.65;;;4.50;99.90;;;;;;4998255;28;20030;-73
2020/12/03 12:18:17;;;;;;;9.25;7.22;;;4.60;99.90;;;;;;5010356;28;20040;-73
2020/12/03 12:20:43;;;;;;;9.63;6.03;;;4.70;99.90;;;;;;5017970;28;20103;-72
2020/12/03 12:23:08;;;;;;;9.80;6.15;;;4.80;99.90;;;;;;4995685;28;20038;-72
2020/12/03 12:25:34;;;;;;;12.50;6.40;;;4.80;99.90;;;;;;4996034;28;20503;-73
2020/12/03 12:28:00;;;;;;;7.22;6.53;;;4.90;99.90;;;;;;5005151;28;20044;-73
2020/12/03 12:30:25;;;;;;;9.85;7.75;;;4.90;99.90;;;;;;5024856;28;20030;-72
2020/12/03 12:32:52;;;;;;;10.07;6.50;;;4.90;99.90;;;;;;5018900;28;20042;-73
2020/12/03 12:35:18;;;;;;;9.07;6.22;;;4.90;99.90;;;;;;5030980;28;20018;-72
2020/12/03 12:37:43;;;;;;;8.75;5.93;;;4.90;99.90;;;;;;5019144;28;20034;-73
2020/12/03 12:40:10;;;;;;;6.60;5.85;;;4.80;99.90;;;;;;5007014;28;20033;-73
2020/12/03 12:42:35;;;;;;;7.45;5.88;;;4.80;99.90;;;;;;5002000;28;20026;-72
2020/12/03 12:45:02;;;;;;;7.78;6.55;;;4.80;99.90;;;;;;5004710;28;20045;-73
2020/12/03 12:47:28;;;;;;;11.77;6.57;;;4.70;99.90;;;;;;5004535;28;20079;-72
2020/12/03 12:49:53;;;;;;;9.20;7.30;;;4.70;99.90;;;;;;5009756;28;20113;-72
2020/12/03 12:52:19;;;;;;;7.18;6.13;;;4.80;99.90;;;;;;5009009;28;20033;-73
2020/12/03 12:54:45;;;;;;;8.40;6.40;;;4.80;99.90;;;;;;5017665;28;20029;-72
2020/12/03 12:57:10;;;;;;;8.02;6.03;;;4.70;99.90;;;;;;5011801;28;20493;-72
2020/12/03 12:59:36;;;;;;;9.02;6.32;;;4.80;99.90;;;;;;5014054;28;20056;-72
2020/12/03 13:02:02;;;;;;;10.73;6.88;;;4.70;99.90;;;;;;5012562;28;20025;-73
2020/12/03 13:04:27;;;;;;;9.57;6.63;;;4.70;99.90;;;;;;5013895;28;20161;-73
2020/12/03 13:06:54;;;;;;;11.00;6.57;;;4.80;99.90;;;;;;5013859;28;20033;-72
2020/12/03 13:09:22;;;;;;;8.65;7.10;;;4.80;99.90;;;;;;5013513;28;20544;-72
2020/12/03 13:11:48;;;;;;;9.77;6.03;;;4.80;99.90;;;;;;5000025;28;20069;-72
2020/12/03 13:14:14;;;;;;;11.82;6.65;;;4.80;99.90;;;;;;4994556;28;20018;-74